Time;durP1;ratioP1;P1;durP2;ratioP2;P2;SDS_P1;SDS_P2;PMS_P1;PMS_P2;Temp;Humidity;BMP_temperature;BMP_pressure;BME280_temperature;BME280_humidity;BME280_pressure;Samples;Min_cycle;Max_cycle;Signal;HPM_P1;HPM_P2
2023/10/08 04:05:19;;;;;;;0.30;0.20;;;11.70;99.90;;;;;;6301500;22;20418;31
2023/10/08 04:08:16;;;;;;;0.30;0.30;;;11.60;99.90;;;;;;4993620;28;20791;-64
2023/10/08 04:13:09;;;;;;;0.30;0.30;;;11.60;99.90;;;;;;4995609;28;20451;-63
2023/10/08 04:15:41;;;;;;;1.40;1.40;;;11.60;99.90;;;;;;5002805;28;20200;-64
2023/10/08 04:18:13;;;;;;;0.30;0.30;;;11.60;99.90;;;;;;5013639;28;20264;-63
2023/10/08 04:20:39;;;;;;;0.30;0.30;;;11.60;99.90;;;;;;5014997;28;20184;-64
2023/10/08 04:23:20;;;;;;;0.83;0.83;;;11.60;99.90;;;;;;5015080;28;20419;-64
2023/10/08 04:25:53;;;;;;;0.30;0.30;;;11.60;99.90;;;;;;5014334;28;20423;-65
2023/10/08 04:28:20;;;;;;;0.30;0.30;;;11.60;99.90;;;;;;5014803;28;20461;-64
2023/10/08 04:30:47;;;;;;;0.30;0.30;;;11.50;99.90;;;;;;5013020;28;20209;-64
2023/10/08 04:33:14;;;;;;;0.35;0.35;;;11.50;99.90;;;;;;5014806;28;20753;-64
2023/10/08 04:35:48;;;;;;;0.30;0.20;;;11.40;99.90;;;;;;5013047;28;20263;-64
2023/10/08 04:38:21;;;;;;;0.30;0.30;;;11.40;99.90;;;;;;5014488;28;20476;-64
2023/10/08 04:40:53;;;;;;;0.47;0.47;;;11.40;99.90;;;;;;5014809;28;20508;-64
2023/10/08 04:43:27;;;;;;;0.30;0.30;;;11.40;99.90;;;;;;5014207;28;20457;-64
2023/10/08 04:45:57;;;;;;;0.30;0.20;;;11.30;99.90;;;;;;5013833;28;20202;-65
2023/10/08 04:48:24;;;;;;;0.30;0.30;;;11.30;99.90;;;;;;5014645;28;20178;-64
2023/10/08 04:50:58;;;;;;;0.52;0.52;;;11.30;99.90;;;;;;5014465;28;20554;-64
2023/10/08 04:53:36;;;;;;;0.30;0.30;;;11.30;99.90;;;;;;5014540;28;20626;-64
2023/10/08 04:56:13;;;;;;;0.30;0.20;;;11.30;99.90;;;;;;5013947;28;20203;-64
2023/10/08 04:58:46;;;;;;;0.33;0.33;;;11.30;99.90;;;;;;5012854;28;20254;-64
2023/10/08 05:01:18;;;;;;;0.30;0.28;;;11.30;99.90;;;;;;5014135;28;20591;-64
2023/10/08 05:17:03;;;;;;;0.30;0.20;;;11.20;99.90;;;;;;5013920;28;20191;-63
2023/10/08 05:22:43;;;;;;;0.30;0.30;;;11.10;99.90;;;;;;5013609;28;20544;-65
2023/10/08 05:30:16;;;;;;;0.30;0.30;;;11.10;99.90;;;;;;5013950;28;20199;-65
2023/10/08 05:33:44;;;;;;;0.30;0.20;;;11.10;99.90;;;;;;5013979;28;20246;-65
2023/10/08 05:38:13;;;;;;;0.30;0.30;;;11.20;99.90;;;;;;5012188;28;20183;-65
2023/10/08 05:47:26;;;;;;;0.30;0.30;;;11.20;99.90;;;;;;5013307;28;20251;-65
2023/10/08 05:49:15;;;;;;;0.30;0.30;;;11.30;99.90;;;;;;5007804;28;20183;-65
2023/10/08 05:57:35;;;;;;;0.30;0.30;;;11.40;99.90;;;;;;5017880;28;20231;-62
2023/10/08 06:00:17;;;;;;;0.30;0.30;;;11.40;99.90;;;;;;5014355;28;20214;-65
2023/10/08 06:03:00;;;;;;;0.30;0.20;;;11.40;99.90;;;;;;4997635;28;20456;-61
2023/10/08 06:05:32;;;;;;;0.30;0.30;;;11.40;99.90;;;;;;4996535;28;20463;-64
2023/10/08 06:08:11;;;;;;;0.30;0.30;;;11.50;99.90;;;;;;4996827;28;20554;-63
2023/10/08 06:15:51;;;;;;;0.30;0.30;;;11.80;99.90;;;;;;5009348;28;21030;-64
2023/10/08 06:18:18;;;;;;;0.30;0.30;;;11.80;99.90;;;;;;5014650;28;20423;-65
2023/10/08 06:20:45;;;;;;;0.80;0.60;;;11.90;99.90;;;;;;5012639;28;20778;-60
2023/10/08 06:23:18;;;;;;;0.30;0.30;;;12.00;99.90;;;;;;5017022;28;20411;-64
2023/10/08 06:25:47;;;;;;;0.30;0.30;;;12.10;99.90;;;;;;5016127;28;20206;-65
2023/10/08 06:28:20;;;;;;;0.30;0.30;;;12.10;99.90;;;;;;5002229;28;20486;-64
2023/10/08 06:30:53;;;;;;;0.30;0.30;;;12.20;99.90;;;;;;5013897;28;20463;-65
2023/10/08 06:33:20;;;;;;;0.30;0.20;;;12.10;99.90;;;;;;4997605;28;20412;-63
2023/10/08 06:38:30;;;;;;;0.30;0.30;;;12.10;99.90;;;;;;4996933;28;20405;-65
2023/10/08 06:41:00;;;;;;;0.63;0.63;;;12.10;99.90;;;;;;4997097;28;20922;-62
2023/10/08 06:43:28;;;;;;;0.30;0.20;;;12.10;99.90;;;;;;4996973;28;20415;-61
2023/10/08 06:45:58;;;;;;;0.43;0.43;;;12.10;99.90;;;;;;4998789;28;20440;-63
2023/10/08 06:48:24;;;;;;;0.30;0.30;;;12.20;99.90;;;;;;5013348;28;21021;-66
2023/10/08 06:50:51;;;;;;;2.10;0.83;;;12.30;99.90;;;;;;5014382;28;20456;-63
2023/10/08 06:53:21;;;;;;;0.30;0.20;;;12.30;99.90;;;;;;5014621;28;20495;-64
2023/10/08 06:55:56;;;;;;;0.30;0.30;;;12.40;99.90;;;;;;5014166;28;20433;-63
2023/10/08 06:58:25;;;;;;;0.30;0.30;;;12.50;99.90;;;;;;5015089;28;20449;-65
2023/10/08 07:00:52;;;;;;;0.30;0.20;;;12.50;99.90;;;;;;5015650;28;20431;-63
2023/10/08 07:03:18;;;;;;;0.30;0.30;;;12.50;99.90;;;;;;5016377;28;20412;-65
2023/10/08 07:05:54;;;;;;;0.30;0.20;;;12.50;99.90;;;;;;5015533;28;20473;-66
2023/10/08 07:08:25;;;;;;;0.97;0.97;;;12.60;99.90;;;;;;5016356;28;20846;-63
2023/10/08 07:10:53;;;;;;;1.23;0.60;;;12.70;99.90;;;;;;5016417;28;20831;-67
2023/10/08 07:13:21;;;;;;;0.30;0.30;;;12.80;99.90;;;;;;5015879;28;20412;-64
2023/10/08 07:15:51;;;;;;;0.30;0.20;;;13.00;99.90;;;;;;5015786;28;20408;-65
2023/10/08 07:18:24;;;;;;;0.30;0.30;;;13.20;99.90;;;;;;5016210;28;20532;-66
2023/10/08 07:20:53;;;;;;;0.30;0.20;;;13.30;99.90;;;;;;5016642;28;20429;-65
2023/10/08 07:23:20;;;;;;;0.30;0.20;;;13.50;99.90;;;;;;5016563;28;20920;-63
2023/10/08 07:25:51;;;;;;;0.30;0.30;;;13.70;99.90;;;;;;5016500;28;20434;-63
2023/10/08 07:28:19;;;;;;;0.30;0.20;;;13.90;99.90;;;;;;5016820;28;20388;-66
2023/10/08 07:30:46;;;;;;;0.30;0.30;;;14.00;99.90;;;;;;5017123;28;20553;-65
2023/10/08 07:33:24;;;;;;;0.30;0.30;;;14.30;99.90;;;;;;5017743;28;20402;-64
2023/10/08 07:35:54;;;;;;;0.30;0.30;;;14.50;99.90;;;;;;5015573;28;20437;-66
2023/10/08 07:38:21;;;;;;;0.30;0.30;;;14.60;99.90;;;;;;5016015;28;20430;-67
2023/10/08 07:40:48;;;;;;;0.30;0.30;;;14.80;99.90;;;;;;5015527;28;20413;-65
2023/10/08 07:43:13;;;;;;;0.30;0.30;;;14.80;99.90;;;;;;5015557;28;20388;-63
2023/10/08 07:45:45;;;;;;;0.30;0.30;;;14.80;99.90;;;;;;5015363;28;20526;-63
2023/10/08 07:48:11;;;;;;;0.30;0.30;;;14.80;99.90;;;;;;5015867;28;20189;-65
2023/10/08 07:50:41;;;;;;;0.30;0.30;;;14.70;99.90;;;;;;5015222;28;20548;-65
2023/10/08 07:53:07;;;;;;;0.30;0.30;;;14.70;99.90;;;;;;5014514;28;20518;-63
2023/10/08 07:55:35;;;;;;;0.30;0.30;;;14.80;99.90;;;;;;5014040;28;20430;-64
2023/10/08 07:58:03;;;;;;;0.30;0.30;;;14.90;99.90;;;;;;5014268;28;20175;-66
2023/10/08 08:00:30;;;;;;;0.30;0.30;;;15.00;99.90;;;;;;5015433;28;20418;-62
2023/10/08 08:02:57;;;;;;;0.30;0.30;;;15.20;99.90;;;;;;5015177;28;20398;-65
2023/10/08 08:05:25;;;;;;;3.10;0.87;;;15.40;99.90;;;;;;5014654;28;20461;-64
2023/10/08 08:07:52;;;;;;;0.43;0.43;;;15.50;99.90;;;;;;5015102;28;20472;-65
2023/10/08 08:10:18;;;;;;;0.30;0.30;;;15.60;99.90;;;;;;5015104;28;20908;-63
2023/10/08 08:12:45;;;;;;;0.30;0.30;;;15.90;99.90;;;;;;5015037;28;20478;-64
2023/10/08 08:15:17;;;;;;;0.30;0.30;;;16.30;99.90;;;;;;5014322;28;20403;-66
2023/10/08 08:17:44;;;;;;;0.30;0.30;;;16.50;99.90;;;;;;5012637;28;20410;-66
2023/10/08 08:20:19;;;;;;;0.30;0.20;;;16.60;99.90;;;;;;5014782;28;20444;-63
2023/10/08 08:22:54;;;;;;;0.30;0.30;;;16.80;99.90;;;;;;5015114;28;20463;-62
2023/10/08 08:25:33;;;;;;;0.30;0.20;;;17.30;99.90;;;;;;5013969;28;20437;-62
2023/10/08 08:27:59;;;;;;;0.30;0.20;;;18.10;99.90;;;;;;5014752;28;20840;-64
2023/10/08 08:30:26;;;;;;;0.30;0.20;;;19.10;99.90;;;;;;5014690;28;20857;-65
2023/10/08 08:32:52;;;;;;;0.30;0.20;;;20.20;99.90;;;;;;5015062;28;20869;-64
2023/10/08 08:35:17;;;;;;;0.30;0.30;;;21.20;98.00;;;;;;5013125;28;20424;-63
2023/10/08 08:37:46;;;;;;;0.30;0.30;;;21.80;95.70;;;;;;5014524;28;20182;-67
2023/10/08 08:40:17;;;;;;;0.67;0.67;;;22.00;94.40;;;;;;5014446;28;20175;-66
2023/10/08 08:42:45;;;;;;;0.30;0.30;;;22.20;93.80;;;;;;5014704;28;20416;-61
2023/10/08 08:45:13;;;;;;;0.30;0.30;;;22.50;93.90;;;;;;5014165;28;20433;-65
2023/10/08 08:47:42;;;;;;;0.40;0.40;;;23.00;92.90;;;;;;5014389;28;20420;-63
2023/10/08 08:50:09;;;;;;;0.30;0.30;;;23.60;91.50;;;;;;5014420;28;20484;-66
2023/10/08 08:52:39;;;;;;;0.40;0.40;;;24.30;91.00;;;;;;5014290;28;20772;-64
2023/10/08 08:55:14;;;;;;;0.30;0.30;;;25.00;87.40;;;;;;5013841;28;20409;-61
2023/10/08 08:57:46;;;;;;;0.30;0.20;;;25.20;84.20;;;;;;5013075;28;20417;-68
2023/10/08 09:00:13;;;;;;;0.50;0.50;;;25.20;84.40;;;;;;5014427;28;20476;-62
2023/10/08 09:02:39;;;;;;;0.80;0.57;;;25.70;86.00;;;;;;5014229;28;20468;-65
2023/10/08 09:05:13;;;;;;;0.60;0.60;;;26.50;85.00;;;;;;5013693;28;20926;-62
2023/10/08 09:07:56;;;;;;;0.50;0.40;;;27.40;83.20;;;;;;5013830;28;20305;-64
2023/10/08 09:10:28;;;;;;;0.60;0.40;;;28.20;80.10;;;;;;5013446;28;20453;-62
2023/10/08 09:12:57;;;;;;;0.30;0.27;;;28.80;77.30;;;;;;5014467;28;20409;-66
2023/10/08 09:15:24;;;;;;;0.40;0.40;;;29.30;75.30;;;;;;5012159;28;20816;-64
2023/10/08 09:17:51;;;;;;;0.87;0.57;;;29.70;73.90;;;;;;5014021;28;20441;-66
2023/10/08 09:20:19;;;;;;;0.40;0.30;;;30.20;71.00;;;;;;5013735;28;20417;-64
2023/10/08 09:22:47;;;;;;;0.50;0.30;;;30.70;70.20;;;;;;4997978;28;20418;-63
2023/10/08 09:25:25;;;;;;;0.80;0.40;;;31.00;69.60;;;;;;5013340;28;20445;-68
2023/10/08 09:27:55;;;;;;;0.40;0.40;;;31.30;66.80;;;;;;5012370;28;20444;-62
2023/10/08 09:30:21;;;;;;;0.50;0.50;;;31.50;66.90;;;;;;5013860;28;20943;-65
2023/10/08 09:32:49;;;;;;;0.77;0.50;;;31.60;63.80;;;;;;5012379;28;20413;-66
2023/10/08 09:35:15;;;;;;;0.30;0.30;;;31.40;65.80;;;;;;5013329;28;20253;-64
2023/10/08 09:37:42;;;;;;;0.40;0.40;;;31.20;66.00;;;;;;5013378;28;20426;-67
2023/10/08 09:40:11;;;;;;;1.03;0.93;;;31.20;66.30;;;;;;5013712;28;20409;-63
2023/10/08 09:42:38;;;;;;;0.77;0.70;;;31.00;64.90;;;;;;5013743;28;20417;-67
2023/10/08 09:45:05;;;;;;;0.50;0.50;;;30.60;66.20;;;;;;5013372;28;20441;-66
2023/10/08 09:47:36;;;;;;;0.30;0.30;;;30.00;66.80;;;;;;5012409;28;20746;-66
2023/10/08 09:50:07;;;;;;;1.43;0.83;;;29.50;68.00;;;;;;5013773;28;20848;-64
2023/10/08 09:53:07;;;;;;;0.53;0.53;;;28.80;71.60;;;;;;5013013;28;20890;-66
2023/10/08 09:55:33;;;;;;;0.43;0.40;;;28.20;70.80;;;;;;5012557;28;20437;-66
2023/10/08 09:57:59;;;;;;;0.30;0.30;;;27.80;73.30;;;;;;5013733;28;20383;-63
2023/10/08 10:00:33;;;;;;;0.30;0.20;;;27.40;74.90;;;;;;5013671;28;20502;-67
2023/10/08 10:03:02;;;;;;;0.50;0.50;;;27.00;76.50;;;;;;5013473;28;20406;-66
2023/10/08 10:05:35;;;;;;;0.30;0.30;;;26.60;78.40;;;;;;5013099;28;20428;-67
2023/10/08 10:08:05;;;;;;;0.50;0.47;;;26.40;77.50;;;;;;5013378;28;20826;-64
2023/10/08 10:10:34;;;;;;;0.30;0.20;;;26.20;78.30;;;;;;5013343;28;20790;-67
2023/10/08 10:13:09;;;;;;;0.30;0.20;;;25.90;79.90;;;;;;5013626;28;20521;-66
2023/10/08 10:15:38;;;;;;;0.30;0.20;;;25.70;79.70;;;;;;5012955;28;20408;-68
2023/10/08 10:18:25;;;;;;;0.57;0.50;;;25.40;82.00;;;;;;5013466;28;20461;-64
2023/10/08 10:21:12;;;;;;;0.30;0.20;;;25.30;82.30;;;;;;5011808;28;20425;-63
2023/10/08 10:23:45;;;;;;;0.30;0.30;;;25.40;81.20;;;;;;5013291;28;20530;-64
2023/10/08 10:26:33;;;;;;;0.30;0.30;;;25.50;79.40;;;;;;5012870;28;20486;-63
2023/10/08 10:29:11;;;;;;;0.30;0.30;;;25.50;80.50;;;;;;5013160;28;20433;-66
2023/10/08 10:31:46;;;;;;;0.83;0.40;;;25.60;81.10;;;;;;5013113;28;20454;-65
2023/10/08 10:34:16;;;;;;;0.30;0.30;;;25.50;83.50;;;;;;5012898;28;20490;-64
2023/10/08 10:36:43;;;;;;;0.60;0.40;;;25.30;83.60;;;;;;5012775;28;20416;-62
2023/10/08 10:39:30;;;;;;;0.30;0.20;;;25.10;83.80;;;;;;5013351;28;20923;-67
2023/10/08 10:41:57;;;;;;;1.63;0.87;;;25.00;83.50;;;;;;5016867;28;20416;-65
2023/10/08 10:44:24;;;;;;;0.40;0.40;;;24.90;83.00;;;;;;5016527;28;20419;-63
2023/10/08 10:49:36;;;;;;;0.40;0.40;;;24.60;85.30;;;;;;5016559;28;20591;-64
2023/10/08 10:52:05;;;;;;;0.30;0.30;;;24.50;86.60;;;;;;5016693;28;20501;-66
2023/10/08 10:54:36;;;;;;;0.30;0.20;;;24.30;86.60;;;;;;5016214;28;20410;-63
2023/10/08 10:57:06;;;;;;;0.30;0.30;;;24.30;87.20;;;;;;5016127;28;20431;-66
2023/10/08 10:59:38;;;;;;;1.20;1.17;;;24.30;88.90;;;;;;5016515;28;20428;-66
2023/10/08 11:02:49;;;;;;;0.30;0.20;;;24.40;89.40;;;;;;5016705;28;20370;-64
2023/10/08 11:04:51;;;;;;;0.30;0.30;;;24.60;87.60;;;;;;5005444;28;20434;-66
2023/10/08 11:07:20;;;;;;;0.30;0.30;;;24.80;85.20;;;;;;5016388;28;20427;-63
2023/10/08 11:09:51;;;;;;;0.40;0.40;;;24.90;84.70;;;;;;5016018;28;20435;-67
2023/10/08 11:12:22;;;;;;;0.47;0.47;;;25.10;84.60;;;;;;5016176;28;20400;-66
2023/10/08 11:14:51;;;;;;;0.70;0.70;;;25.10;83.70;;;;;;5014475;28;20931;-64
2023/10/08 11:17:24;;;;;;;0.40;0.40;;;25.30;83.00;;;;;;5016284;28;20422;-64
2023/10/08 11:19:50;;;;;;;0.30;0.20;;;25.40;83.30;;;;;;5016376;28;20413;-66
2023/10/08 11:22:18;;;;;;;0.50;0.50;;;25.40;84.70;;;;;;5016169;28;20420;-66
2023/10/08 11:24:47;;;;;;;0.50;0.50;;;25.30;83.40;;;;;;5015304;28;20432;-67
2023/10/08 11:27:29;;;;;;;0.50;0.47;;;25.30;83.80;;;;;;5015881;28;20370;-64
2023/10/08 11:30:00;;;;;;;0.30;0.20;;;25.30;86.20;;;;;;5015955;28;20449;-66
2023/10/08 11:32:26;;;;;;;0.30;0.20;;;25.30;83.40;;;;;;5015885;28;20762;-66
2023/10/08 11:34:59;;;;;;;0.70;0.50;;;25.20;85.20;;;;;;5015255;28;20429;-64
2023/10/08 11:37:35;;;;;;;0.30;0.30;;;25.30;83.70;;;;;;5015133;28;20412;-66
2023/10/08 11:40:09;;;;;;;0.90;0.50;;;25.50;83.70;;;;;;5015456;28;20429;-67
2023/10/08 11:45:48;;;;;;;0.30;0.30;;;25.70;83.20;;;;;;5014954;28;20454;-63
2023/10/08 11:47:57;;;;;;;0.30;0.30;;;25.60;82.10;;;;;;5007452;28;20656;-65
2023/10/08 11:50:35;;;;;;;0.50;0.50;;;25.60;81.60;;;;;;5015485;28;20462;-66
2023/10/08 11:53:02;;;;;;;0.30;0.20;;;25.60;82.70;;;;;;5015457;28;20411;-65
2023/10/08 11:55:42;;;;;;;0.37;0.33;;;25.60;83.50;;;;;;5014603;28;20442;-65
2023/10/08 11:58:12;;;;;;;0.40;0.40;;;25.70;83.70;;;;;;4995939;28;20375;-65
2023/10/08 12:00:45;;;;;;;1.33;0.73;;;25.70;81.70;;;;;;4995820;28;20395;-64
2023/10/08 12:03:24;;;;;;;0.30;0.30;;;25.70;82.70;;;;;;4995603;28;20383;-63
2023/10/08 12:05:58;;;;;;;0.40;0.37;;;25.70;82.90;;;;;;4995304;28;20922;-64
2023/10/08 12:08:27;;;;;;;0.30;0.30;;;25.80;81.20;;;;;;4995478;28;20425;-64
2023/10/08 12:10:54;;;;;;;0.73;0.50;;;25.90;81.80;;;;;;5005366;28;20467;-66
2023/10/08 12:13:24;;;;;;;0.30;0.23;;;25.90;82.00;;;;;;5015084;28;20412;-65
2023/10/08 12:16:05;;;;;;;0.40;0.40;;;26.00;81.70;;;;;;5014715;28;20450;-64
2023/10/08 12:18:34;;;;;;;0.30;0.30;;;26.00;81.90;;;;;;5015176;28;20400;-66
2023/10/08 12:21:01;;;;;;;0.50;0.50;;;25.90;81.60;;;;;;5014445;28;20426;-65
2023/10/08 12:23:28;;;;;;;0.67;0.67;;;25.80;82.00;;;;;;5014825;28;20458;-66
2023/10/08 12:25:55;;;;;;;0.30;0.30;;;25.70;82.80;;;;;;5014471;28;20751;-66
2023/10/08 12:28:24;;;;;;;0.40;0.40;;;25.60;83.00;;;;;;5015028;28;20428;-65
2023/10/08 12:30:53;;;;;;;0.30;0.20;;;25.60;81.80;;;;;;5014410;28;20424;-66
2023/10/08 12:33:20;;;;;;;0.30;0.20;;;25.60;81.30;;;;;;5014696;28;20429;-65
2023/10/08 12:35:49;;;;;;;0.30;0.20;;;25.50;80.20;;;;;;5014347;28;20430;-63
2023/10/08 12:38:15;;;;;;;0.30;0.30;;;25.40;79.30;;;;;;5014684;28;20397;-65
2023/10/08 12:41:08;;;;;;;0.30;0.30;;;25.30;80.40;;;;;;5014774;28;20405;-62
2023/10/08 12:43:30;;;;;;;0.50;0.37;;;25.30;81.00;;;;;;5014576;28;20207;-66
2023/10/08 12:45:56;;;;;;;0.40;0.40;;;25.20;80.50;;;;;;5013653;28;20427;-63
2023/10/08 12:48:27;;;;;;;0.40;0.40;;;25.10;81.10;;;;;;5014665;28;20413;-64
2023/10/08 12:50:56;;;;;;;0.50;0.50;;;25.10;81.30;;;;;;5014545;28;20457;-66
2023/10/08 12:53:38;;;;;;;0.40;0.30;;;25.20;81.70;;;;;;5014572;28;20762;-66
2023/10/08 12:56:14;;;;;;;0.30;0.30;;;25.20;81.30;;;;;;5013811;28;20433;-64
2023/10/08 12:58:43;;;;;;;0.30;0.30;;;25.30;81.10;;;;;;5014455;28;20765;-66
2023/10/08 13:01:10;;;;;;;1.27;0.90;;;25.30;80.60;;;;;;5014298;28;20784;-67
2023/10/08 13:03:42;;;;;;;4.00;0.73;;;25.30;80.70;;;;;;5014065;28;20392;-65
2023/10/08 13:06:14;;;;;;;0.53;0.40;;;25.40;80.00;;;;;;5013605;28;20526;-63
2023/10/08 13:08:41;;;;;;;0.30;0.27;;;25.40;80.10;;;;;;5014292;28;20403;-63
2023/10/08 13:11:06;;;;;;;0.63;0.63;;;25.50;79.80;;;;;;5014182;28;20815;-63
2023/10/08 13:13:33;;;;;;;0.30;0.20;;;25.50;79.40;;;;;;5014326;28;20463;-65
2023/10/08 13:16:03;;;;;;;0.30;0.20;;;25.40;79.10;;;;;;5013149;28;20221;-66
2023/10/08 13:18:30;;;;;;;0.40;0.40;;;25.40;78.70;;;;;;5014074;28;20395;-63
2023/10/08 13:20:57;;;;;;;0.50;0.50;;;25.30;78.90;;;;;;5014061;28;20392;-66
2023/10/08 13:23:23;;;;;;;0.30;0.30;;;25.30;79.70;;;;;;5013945;28;20748;-65
2023/10/08 13:25:54;;;;;;;0.57;0.50;;;25.30;79.30;;;;;;5013473;28;20425;-63
2023/10/08 13:28:21;;;;;;;0.30;0.30;;;25.30;78.90;;;;;;5013819;28;20443;-64
2023/10/08 13:30:47;;;;;;;1.30;0.87;;;25.20;78.90;;;;;;5013274;28;20471;-66
2023/10/08 13:33:12;;;;;;;0.30;0.20;;;25.10;79.20;;;;;;4994274;28;20410;-63
2023/10/08 13:35:38;;;;;;;2.97;0.43;;;25.10;79.60;;;;;;4993654;28;20435;-64
2023/10/08 13:38:09;;;;;;;0.30;0.20;;;25.10;80.00;;;;;;4993862;28;20228;-67
2023/10/08 13:40:39;;;;;;;0.30;0.20;;;25.00;80.40;;;;;;4994267;28;20513;-64
2023/10/08 13:43:06;;;;;;;0.90;0.70;;;25.10;81.50;;;;;;4994318;28;20414;-64
2023/10/08 13:45:37;;;;;;;0.30;0.30;;;25.00;82.00;;;;;;5002937;28;20800;-65
2023/10/08 13:48:05;;;;;;;0.30;0.30;;;25.00;82.40;;;;;;5013795;28;20414;-64
2023/10/08 13:50:31;;;;;;;0.87;0.30;;;25.00;81.70;;;;;;5012438;28;20505;-64
2023/10/08 13:52:58;;;;;;;0.30;0.20;;;25.00;81.10;;;;;;5013830;28;20425;-65
2023/10/08 13:55:25;;;;;;;1.13;1.13;;;24.90;81.40;;;;;;5012964;28;20415;-67
2023/10/08 13:57:54;;;;;;;0.70;0.70;;;25.00;81.50;;;;;;5013347;28;20945;-64
2023/10/08 14:00:25;;;;;;;0.30;0.30;;;24.90;82.70;;;;;;5013548;28;20389;-62
2023/10/08 14:02:52;;;;;;;0.30;0.27;;;24.90;82.90;;;;;;5013262;28;20403;-65
2023/10/08 14:05:23;;;;;;;0.40;0.40;;;24.80;83.10;;;;;;5013111;28;20474;-66
2023/10/08 14:07:51;;;;;;;0.70;0.70;;;24.70;82.80;;;;;;5013529;28;20448;-65
2023/10/08 14:10:18;;;;;;;0.30;0.20;;;24.70;83.50;;;;;;5013325;28;20457;-65
2023/10/08 14:12:49;;;;;;;0.43;0.43;;;24.60;83.90;;;;;;5011824;28;21000;-65
2023/10/08 14:15:16;;;;;;;0.30;0.20;;;24.60;84.70;;;;;;5013954;28;20195;-63
2023/10/08 14:17:48;;;;;;;0.30;0.30;;;24.50;84.50;;;;;;5017434;28;20399;-64
2023/10/08 14:20:15;;;;;;;0.30;0.20;;;24.40;84.60;;;;;;5017424;28;20388;-63
2023/10/08 14:22:41;;;;;;;0.40;0.30;;;24.40;84.90;;;;;;5017206;28;20400;-65
2023/10/08 14:25:14;;;;;;;0.30;0.30;;;24.40;85.00;;;;;;5016802;28;20425;-65
2023/10/08 14:27:40;;;;;;;0.30;0.30;;;24.30;85.50;;;;;;5017012;28;20525;-65
2023/10/08 14:30:14;;;;;;;0.40;0.40;;;24.20;85.70;;;;;;5017123;28;20573;-65
2023/10/08 14:32:45;;;;;;;1.33;0.60;;;24.10;86.10;;;;;;5017258;28;20170;-66
2023/10/08 14:43:24;;;;;;;0.30;0.20;;;23.90;88.30;;;;;;5016857;28;20469;-64
2023/10/08 14:45:52;;;;;;;0.30;0.30;;;23.80;88.60;;;;;;5016277;28;20465;-67
2023/10/08 14:48:18;;;;;;;0.30;0.20;;;23.80;89.10;;;;;;5016930;28;20203;-66
2023/10/08 14:50:45;;;;;;;0.30;0.20;;;23.70;89.50;;;;;;5016489;28;21008;-63
2023/10/08 14:53:11;;;;;;;0.30;0.20;;;23.70;90.00;;;;;;5016903;28;20397;-64
2023/10/08 14:55:37;;;;;;;0.40;0.37;;;23.60;89.40;;;;;;5014850;28;20430;-66
2023/10/08 14:58:07;;;;;;;0.30;0.20;;;23.60;89.20;;;;;;5016498;28;20518;-66
2023/10/08 15:00:35;;;;;;;0.30;0.20;;;23.60;89.20;;;;;;5016567;28;20664;-65
2023/10/08 15:03:05;;;;;;;0.30;0.30;;;23.50;89.40;;;;;;5016542;28;20418;-64
2023/10/08 15:05:31;;;;;;;0.40;0.40;;;23.50;89.80;;;;;;5015858;28;20407;-64
2023/10/08 15:07:57;;;;;;;0.30;0.27;;;23.50;90.00;;;;;;5016219;28;20407;-65
2023/10/08 15:10:22;;;;;;;0.30;0.30;;;23.50;90.10;;;;;;5016227;28;20476;-63
2023/10/08 15:12:49;;;;;;;0.30;0.20;;;23.40;90.30;;;;;;5016025;28;20179;-66
2023/10/08 15:15:15;;;;;;;0.30;0.30;;;23.40;90.40;;;;;;5015611;28;20226;-66
2023/10/08 15:17:46;;;;;;;0.30;0.20;;;23.40;90.50;;;;;;5016149;28;20823;-65
2023/10/08 15:20:23;;;;;;;0.40;0.30;;;23.40;90.70;;;;;;5016193;28;20888;-67
2023/10/08 15:22:49;;;;;;;0.30;0.20;;;23.50;90.60;;;;;;5016171;28;20436;-63
2023/10/08 15:25:18;;;;;;;0.30;0.20;;;23.50;90.60;;;;;;5015786;28;20426;-67
2023/10/08 15:27:44;;;;;;;0.30;0.20;;;23.50;90.70;;;;;;5015685;28;20504;-65
2023/10/08 15:30:17;;;;;;;0.40;0.40;;;23.50;90.70;;;;;;5014876;28;20446;-65
2023/10/08 15:32:45;;;;;;;0.30;0.30;;;23.50;90.50;;;;;;5016077;28;20983;-66
2023/10/08 15:35:14;;;;;;;0.30;0.30;;;23.50;90.50;;;;;;5015399;28;20418;-64
2023/10/08 15:37:40;;;;;;;0.30;0.30;;;23.50;90.50;;;;;;5015789;28;20396;-65
2023/10/08 15:40:08;;;;;;;0.30;0.20;;;23.40;90.50;;;;;;5015792;28;20412;-62
2023/10/08 15:42:35;;;;;;;0.30;0.30;;;23.30;90.60;;;;;;5015395;28;20397;-66
2023/10/08 15:45:04;;;;;;;0.30;0.30;;;23.30;90.70;;;;;;5015169;28;20434;-66
2023/10/08 15:47:31;;;;;;;0.30;0.27;;;23.20;90.60;;;;;;5014576;28;20406;-67
2023/10/08 15:50:00;;;;;;;0.30;0.20;;;23.20;90.80;;;;;;5015606;28;20507;-67
2023/10/08 15:52:26;;;;;;;0.30;0.30;;;23.20;90.80;;;;;;5014240;28;20910;-65
2023/10/08 15:54:52;;;;;;;0.30;0.30;;;23.10;90.60;;;;;;5013420;28;20418;-63
2023/10/08 15:57:18;;;;;;;0.30;0.20;;;23.10;90.60;;;;;;5015229;28;20418;-67
2023/10/08 15:59:43;;;;;;;0.30;0.30;;;23.00;90.70;;;;;;5015447;28;20195;-61
2023/10/08 16:02:09;;;;;;;0.60;0.60;;;23.00;90.90;;;;;;5014962;28;20623;-67
2023/10/08 16:04:34;;;;;;;0.30;0.20;;;23.00;91.10;;;;;;5014755;28;20168;-66
2023/10/08 16:07:00;;;;;;;0.30;0.20;;;22.90;91.20;;;;;;5013724;28;20643;-65
2023/10/08 16:09:27;;;;;;;0.30;0.30;;;22.90;91.30;;;;;;5015223;28;20175;-63
2023/10/08 16:11:53;;;;;;;0.30;0.20;;;22.80;91.30;;;;;;5015192;28;20260;-65
2023/10/08 16:14:20;;;;;;;0.30;0.30;;;22.80;91.40;;;;;;5014746;28;20469;-64
2023/10/08 16:16:47;;;;;;;0.30;0.20;;;22.80;91.50;;;;;;5013454;28;20704;-65
2023/10/08 16:19:13;;;;;;;0.30;0.20;;;22.70;91.50;;;;;;5015137;28;20742;-66
2023/10/08 16:21:39;;;;;;;0.30;0.20;;;22.60;91.70;;;;;;5015001;28;20405;-64
2023/10/08 16:24:05;;;;;;;0.30;0.30;;;22.70;92.00;;;;;;5014878;28;20410;-65
2023/10/08 16:26:32;;;;;;;0.30;0.20;;;22.50;92.00;;;;;;5014245;28;20295;-65
2023/10/08 16:28:58;;;;;;;0.30;0.30;;;22.50;92.10;;;;;;5014427;28;20447;-64
2023/10/08 16:31:25;;;;;;;0.30;0.20;;;22.40;92.10;;;;;;5013320;28;20536;-63
2023/10/08 16:33:52;;;;;;;0.30;0.30;;;22.30;92.30;;;;;;5014635;28;20440;-66
2023/10/08 16:36:18;;;;;;;0.40;0.30;;;22.20;92.60;;;;;;5014735;28;20438;-66
2023/10/08 16:38:45;;;;;;;0.30;0.30;;;22.10;92.80;;;;;;5013955;28;20442;-64
2023/10/08 16:41:12;;;;;;;0.30;0.30;;;22.00;92.90;;;;;;5014230;28;20409;-64
2023/10/08 16:43:38;;;;;;;0.50;0.50;;;21.90;93.10;;;;;;5013117;28;20421;-65
2023/10/08 16:46:05;;;;;;;0.30;0.30;;;21.70;93.40;;;;;;5012714;28;20431;-65
2023/10/08 16:48:34;;;;;;;0.30;0.30;;;21.60;93.60;;;;;;5014432;28;20418;-66
2023/10/08 16:51:01;;;;;;;0.53;0.40;;;21.40;93.70;;;;;;5014391;28;20457;-66
2023/10/08 16:53:28;;;;;;;1.63;1.53;;;21.30;94.00;;;;;;5014515;28;20413;-65
2023/10/08 16:55:54;;;;;;;0.30;0.30;;;21.20;94.30;;;;;;5013333;28;20453;-64
2023/10/08 16:58:20;;;;;;;0.30;0.20;;;21.10;94.50;;;;;;5014306;28;20543;-65
2023/10/08 17:00:47;;;;;;;0.63;0.60;;;20.90;94.70;;;;;;5012935;28;20453;-65
2023/10/08 17:03:13;;;;;;;0.30;0.30;;;20.70;95.10;;;;;;5014238;28;20782;-67
2023/10/08 17:05:39;;;;;;;0.30;0.30;;;20.60;95.60;;;;;;5013790;28;20437;-66
2023/10/08 17:08:05;;;;;;;0.30;0.30;;;20.50;96.00;;;;;;5014166;28;21079;-64
2023/10/08 17:10:31;;;;;;;0.30;0.20;;;20.40;96.40;;;;;;5013808;28;20548;-66
2023/10/08 17:12:58;;;;;;;0.80;0.80;;;20.30;96.80;;;;;;5014076;28;20179;-65
2023/10/08 17:15:24;;;;;;;0.30;0.20;;;20.10;97.90;;;;;;5013713;28;20245;-66
2023/10/08 17:17:50;;;;;;;0.47;0.40;;;20.00;98.60;;;;;;5014047;28;20430;-64
2023/10/08 17:20:22;;;;;;;0.60;0.60;;;19.90;99.00;;;;;;5014115;28;20442;-66
2023/10/08 17:22:49;;;;;;;0.30;0.30;;;19.80;99.10;;;;;;5014144;28;20556;-65
2023/10/08 17:25:14;;;;;;;0.30;0.20;;;19.70;99.40;;;;;;5013108;28;20874;-66
2023/10/08 17:27:46;;;;;;;1.43;0.97;;;19.60;99.80;;;;;;5014034;28;20444;-63
2023/10/08 17:30:21;;;;;;;0.60;0.57;;;19.50;99.90;;;;;;5013917;28;20488;-66
2023/10/08 17:32:48;;;;;;;0.30;0.30;;;19.40;99.90;;;;;;5013876;28;20493;-65
2023/10/08 17:35:18;;;;;;;0.40;0.40;;;19.40;99.90;;;;;;5012257;28;20800;-65
2023/10/08 17:37:47;;;;;;;0.40;0.30;;;19.30;99.90;;;;;;5013671;28;20912;-66
2023/10/08 17:40:13;;;;;;;0.30;0.20;;;19.20;99.90;;;;;;5012501;28;20505;-63
2023/10/08 17:42:40;;;;;;;0.30;0.30;;;19.10;99.90;;;;;;5013836;28;20422;-64
2023/10/08 17:45:08;;;;;;;0.70;0.50;;;19.00;99.90;;;;;;5013188;28;20928;-63
2023/10/08 17:47:35;;;;;;;0.57;0.57;;;18.90;99.90;;;;;;5013963;28;20417;-66
2023/10/08 17:50:02;;;;;;;0.80;0.80;;;18.80;99.90;;;;;;5012278;28;20827;-63
2023/10/08 17:52:28;;;;;;;0.50;0.50;;;18.70;99.90;;;;;;5013347;28;20451;-66
2023/10/08 17:54:54;;;;;;;0.30;0.30;;;18.60;99.90;;;;;;5013090;28;20725;-64
2023/10/08 17:57:21;;;;;;;0.50;0.50;;;18.50;99.90;;;;;;5013979;28;20180;-63
2023/10/08 17:59:48;;;;;;;0.33;0.33;;;18.40;99.90;;;;;;5014366;28;20781;-63
2023/10/08 18:02:16;;;;;;;0.30;0.30;;;18.30;99.90;;;;;;5014336;28;20176;-64
2023/10/08 18:04:43;;;;;;;0.43;0.43;;;18.30;99.90;;;;;;5014205;28;20420;-66